createdAt,value
2018-02-24T00:00:47.251Z,17.70
2018-02-24T00:01:47.198Z,18.00
2018-02-24T00:02:47.150Z,17.90
2018-02-24T00:03:47.094Z,21.10
2018-02-24T00:04:47.042Z,18.50
2018-02-24T00:05:46.990Z,20.20
2018-02-24T00:06:46.938Z,18.40
2018-02-24T00:07:46.887Z,19.00
2018-02-24T00:08:46.838Z,18.60
2018-02-24T00:09:46.784Z,17.80
2018-02-24T00:10:46.731Z,20.00
2018-02-24T00:11:46.682Z,19.10
2018-02-24T00:12:46.629Z,19.30
2018-02-24T00:13:46.576Z,18.60
2018-02-24T00:14:46.532Z,20.50
2018-02-24T00:15:46.475Z,19.20
2018-02-24T00:16:46.424Z,18.70
2018-02-24T00:17:46.370Z,19.30
2018-02-24T00:18:46.319Z,19.40
2018-02-24T00:19:46.269Z,20.20
2018-02-24T00:20:46.216Z,20.40
2018-02-24T00:21:46.166Z,18.40
2018-02-24T00:22:46.114Z,19.60
2018-02-24T00:23:46.065Z,19.60
2018-02-24T00:24:46.010Z,20.60
2018-02-24T00:25:45.956Z,21.00
2018-02-24T00:26:45.906Z,19.40
2018-02-24T00:27:45.854Z,19.20
2018-02-24T00:28:45.801Z,19.30
2018-02-24T00:29:45.748Z,22.00
2018-02-24T00:30:45.697Z,19.30
2018-02-24T00:31:45.646Z,20.40
2018-02-24T00:32:45.598Z,23.00
2018-02-24T00:33:45.541Z,19.10
2018-02-24T00:34:45.519Z,20.10
2018-02-24T00:35:45.443Z,20.00
2018-02-24T00:36:45.393Z,20.90
2018-02-24T00:37:45.337Z,20.30
2018-02-24T00:38:45.284Z,20.30
2018-02-24T00:39:45.232Z,20.70
2018-02-24T00:40:45.179Z,20.80
2018-02-24T00:41:45.130Z,19.90
2018-02-24T00:42:45.076Z,19.80
2018-02-24T00:43:45.027Z,20.10
2018-02-24T00:44:44.974Z,21.50
2018-02-24T00:45:44.920Z,21.30
2018-02-24T00:46:44.874Z,21.50
2018-02-24T00:47:44.818Z,20.90
2018-02-24T00:48:44.768Z,20.40
2018-02-24T00:49:44.715Z,21.20
2018-02-24T00:50:44.664Z,21.10
2018-02-24T00:51:44.608Z,21.50
2018-02-24T00:52:44.557Z,20.80
2018-02-24T00:53:44.503Z,21.00
2018-02-24T00:54:44.454Z,23.50
2018-02-24T00:55:44.406Z,20.30
2018-02-24T00:56:44.353Z,20.60
2018-02-24T00:57:44.298Z,22.50
2018-02-24T00:58:44.247Z,20.80
2018-02-24T00:59:44.195Z,20.90
2018-02-24T01:00:44.145Z,19.80
2018-02-24T01:01:44.097Z,21.30
2018-02-24T01:02:44.038Z,24.90
2018-02-24T01:03:43.987Z,20.60
2018-02-24T01:04:43.938Z,20.40
2018-02-24T01:05:43.884Z,22.30
2018-02-24T01:06:43.833Z,20.50
2018-02-24T01:07:43.780Z,23.10
2018-02-24T01:08:43.726Z,21.00
2018-02-24T01:09:43.675Z,19.70
2018-02-24T01:10:43.626Z,22.00
2018-02-24T01:11:43.571Z,20.40
2018-02-24T01:12:43.522Z,22.80
2018-02-24T01:13:43.472Z,20.10
2018-02-24T01:14:43.414Z,21.10
2018-02-24T01:15:43.364Z,20.60
2018-02-24T01:16:43.312Z,20.70
2018-02-24T01:17:43.258Z,20.40
2018-02-24T01:18:43.207Z,21.40
2018-02-24T01:19:43.154Z,20.70
2018-02-24T01:20:43.106Z,19.80
2018-02-24T01:21:43.051Z,19.10
2018-02-24T01:22:42.997Z,19.80
2018-02-24T01:23:42.948Z,21.00
2018-02-24T01:24:42.893Z,20.40
2018-02-24T01:25:42.844Z,21.90
2018-02-24T01:26:42.792Z,19.70
2018-02-24T01:27:42.739Z,21.10
2018-02-24T01:28:42.688Z,20.10
2018-02-24T01:29:42.635Z,20.30
2018-02-24T01:30:42.584Z,21.50
2018-02-24T01:31:42.535Z,20.00
2018-02-24T01:32:42.479Z,20.20
2018-02-24T01:33:42.428Z,21.70
2018-02-24T01:34:42.373Z,21.60
2018-02-24T01:35:42.321Z,19.50
2018-02-24T01:36:42.269Z,21.70
2018-02-24T01:37:42.217Z,21.00
2018-02-24T01:38:42.170Z,20.30
2018-02-24T01:39:42.113Z,20.70
2018-02-24T01:40:42.066Z,21.20
2018-02-24T01:41:42.011Z,20.60
2018-02-24T01:42:41.963Z,19.90
2018-02-24T01:43:41.903Z,20.40
2018-02-24T01:44:41.857Z,19.70
2018-02-24T01:45:41.800Z,20.70
2018-02-24T01:46:41.752Z,20.00
2018-02-24T01:47:41.696Z,19.20
2018-02-24T01:48:41.643Z,20.70
2018-02-24T01:49:41.592Z,20.50
2018-02-24T01:50:41.549Z,21.10
2018-02-24T01:51:41.494Z,20.30
2018-02-24T01:52:41.439Z,19.60
2018-02-24T01:53:41.383Z,21.20
2018-02-24T01:54:41.334Z,21.00
2018-02-24T01:55:41.284Z,21.10
2018-02-24T01:56:41.226Z,20.40
2018-02-24T01:57:41.178Z,21.00
2018-02-24T01:58:41.126Z,20.20
2018-02-24T01:59:41.076Z,20.70
2018-02-24T02:00:41.027Z,20.20
2018-02-24T02:01:40.968Z,20.40
2018-02-24T02:02:40.916Z,19.70
2018-02-24T02:03:40.862Z,20.10
2018-02-24T02:04:40.812Z,20.10
2018-02-24T02:05:40.758Z,19.50
2018-02-24T02:06:40.707Z,18.70
2018-02-24T02:07:40.651Z,20.00
2018-02-24T02:08:40.604Z,19.20
2018-02-24T02:09:40.550Z,20.70
2018-02-24T02:10:40.495Z,19.30
2018-02-24T02:11:40.443Z,20.30
2018-02-24T02:12:40.391Z,21.00
2018-02-24T02:13:40.339Z,20.50
2018-02-24T02:14:40.287Z,19.90
2018-02-24T02:15:40.237Z,19.80
2018-02-24T02:16:40.182Z,19.90
2018-02-24T02:17:40.130Z,19.90
2018-02-24T02:18:40.079Z,19.80
2018-02-24T02:19:40.028Z,20.40
2018-02-24T02:20:39.974Z,19.60
2018-02-24T02:21:39.925Z,20.20
2018-02-24T02:22:39.871Z,20.10
2018-02-24T02:23:39.816Z,20.20
2018-02-24T02:24:39.770Z,19.80
2018-02-24T02:25:39.715Z,19.90
2018-02-24T02:26:39.661Z,19.50
2018-02-24T02:27:39.614Z,19.40
2018-02-24T02:28:39.561Z,20.70
2018-02-24T02:29:39.503Z,20.20
2018-02-24T02:30:39.456Z,20.40
2018-02-24T02:31:39.400Z,20.60
2018-02-24T02:32:39.347Z,21.30
2018-02-24T02:33:39.300Z,21.80
2018-02-24T02:34:39.244Z,22.00
2018-02-24T02:35:39.194Z,20.70
2018-02-24T02:36:39.142Z,20.60
2018-02-24T02:37:39.085Z,19.10
2018-02-24T02:38:39.044Z,19.70
2018-02-24T02:39:38.983Z,19.90
2018-02-24T02:40:38.934Z,19.80
2018-02-24T02:41:38.876Z,19.50
2018-02-24T02:42:38.827Z,20.50
2018-02-24T02:43:38.774Z,19.40
2018-02-24T02:44:38.721Z,20.10
2018-02-24T02:45:38.666Z,19.50
2018-02-24T02:46:38.619Z,19.60
2018-02-24T02:47:38.568Z,19.60
2018-02-24T02:48:38.514Z,19.40
2018-02-24T02:49:38.460Z,19.10
2018-02-24T02:50:38.408Z,19.00
2018-02-24T02:51:38.355Z,19.50
2018-02-24T02:52:38.304Z,19.80
2018-02-24T02:53:38.251Z,18.60
2018-02-24T02:54:38.202Z,19.70
2018-02-24T02:55:38.150Z,20.10
2018-02-24T02:56:38.095Z,19.90
2018-02-24T02:57:38.043Z,20.10
2018-02-24T02:58:37.986Z,19.70
2018-02-24T02:59:37.940Z,19.90
2018-02-24T03:00:37.894Z,19.90
2018-02-24T03:01:37.831Z,19.00
2018-02-24T03:02:37.785Z,19.40
2018-02-24T03:03:37.734Z,19.30
2018-02-24T03:04:37.677Z,20.20
2018-02-24T03:05:37.627Z,19.00
2018-02-24T03:06:37.576Z,19.50
2018-02-24T03:07:37.521Z,19.50
2018-02-24T03:08:37.587Z,20.00
2018-02-24T03:09:37.415Z,20.30
2018-02-24T03:10:37.362Z,19.20
2018-02-24T03:11:37.310Z,20.20
2018-02-24T03:12:37.261Z,19.60
2018-02-24T03:13:37.212Z,19.70
2018-02-24T03:14:37.157Z,20.50
2018-02-24T03:15:37.100Z,19.50
2018-02-24T03:16:37.050Z,19.80
2018-02-24T03:17:37.000Z,19.60
2018-02-24T03:18:36.944Z,19.90
2018-02-24T03:19:36.893Z,19.80
2018-02-24T03:20:36.845Z,19.80
2018-02-24T03:21:36.792Z,20.00
2018-02-24T03:22:36.744Z,19.80
2018-02-24T03:23:36.685Z,19.80
2018-02-24T03:24:36.636Z,19.90
2018-02-24T03:25:36.578Z,19.60
2018-02-24T03:26:36.526Z,19.80
2018-02-24T03:27:36.475Z,20.60
2018-02-24T03:28:36.422Z,19.00
2018-02-24T03:29:36.370Z,20.00
2018-02-24T03:30:36.324Z,20.90
2018-02-24T03:31:36.265Z,20.50
2018-02-24T03:32:36.214Z,20.50
2018-02-24T03:33:36.161Z,20.30
2018-02-24T03:34:36.109Z,20.70
2018-02-24T03:35:36.055Z,20.60
2018-02-24T03:36:36.017Z,19.80
2018-02-24T03:37:35.955Z,19.10
2018-02-24T03:38:35.897Z,21.00
2018-02-24T03:39:35.846Z,20.20
2018-02-24T03:40:35.797Z,21.30
2018-02-24T03:41:35.741Z,19.80
2018-02-24T03:42:35.689Z,20.70
2018-02-24T03:43:35.636Z,20.30
2018-02-24T03:44:35.583Z,20.40
2018-02-24T03:45:35.537Z,20.20
2018-02-24T03:46:35.490Z,19.50
2018-02-24T03:47:35.432Z,20.70
2018-02-24T03:48:35.374Z,21.00
2018-02-24T03:49:35.326Z,19.60
2018-02-24T03:50:35.272Z,20.40
2018-02-24T03:51:35.214Z,20.40
2018-02-24T03:52:35.171Z,20.20
2018-02-24T03:53:35.111Z,19.70
2018-02-24T03:54:35.061Z,20.80
2018-02-24T03:55:35.010Z,20.20
2018-02-24T03:56:34.959Z,20.10
2018-02-24T03:57:34.904Z,20.30
2018-02-24T03:58:34.850Z,19.10
2018-02-24T03:59:34.821Z,19.50
2018-02-24T04:00:34.746Z,19.40
2018-02-24T04:01:34.692Z,19.80
2018-02-24T04:02:34.644Z,20.70
2018-02-24T04:03:34.593Z,20.30
2018-02-24T04:04:34.536Z,19.30
2018-02-24T04:05:34.482Z,19.70
2018-02-24T04:06:34.433Z,19.80
2018-02-24T04:07:34.382Z,20.20
2018-02-24T04:08:34.328Z,19.50
2018-02-24T04:09:34.271Z,19.90
2018-02-24T04:10:34.222Z,20.20
2018-02-24T04:11:34.173Z,20.50
2018-02-24T04:12:34.117Z,20.00
2018-02-24T04:13:34.063Z,20.00
2018-02-24T04:14:34.013Z,20.00
2018-02-24T04:15:33.966Z,20.00
2018-02-24T04:16:33.965Z,20.10
2018-02-24T04:17:33.857Z,21.50
2018-02-24T04:18:33.803Z,19.70
2018-02-24T04:19:33.753Z,18.80
2018-02-24T04:20:33.696Z,19.80
2018-02-24T04:21:33.642Z,19.10
2018-02-24T04:22:33.591Z,18.90
2018-02-24T04:23:33.539Z,20.40
2018-02-24T04:24:33.491Z,20.00
2018-02-24T04:25:33.435Z,19.80
2018-02-24T04:26:33.381Z,19.80
2018-02-24T04:27:33.335Z,20.30
2018-02-24T04:28:33.279Z,20.10
2018-02-24T04:29:33.233Z,20.40
2018-02-24T04:30:33.171Z,20.50
2018-02-24T04:31:33.118Z,20.10
2018-02-24T04:32:33.067Z,20.40
2018-02-24T04:33:33.015Z,20.30
2018-02-24T04:34:32.964Z,19.80
2018-02-24T04:35:32.913Z,20.30
2018-02-24T04:36:32.860Z,20.20
2018-02-24T04:37:32.809Z,20.50
2018-02-24T04:38:32.755Z,20.30
2018-02-24T04:39:32.711Z,20.60
2018-02-24T04:40:32.649Z,19.80
2018-02-24T04:41:32.596Z,20.40
2018-02-24T04:42:32.548Z,20.80
2018-02-24T04:43:32.490Z,20.80
2018-02-24T04:44:32.439Z,20.40
2018-02-24T04:45:32.385Z,20.40
2018-02-24T04:46:32.336Z,19.60
2018-02-24T04:47:32.284Z,19.80
2018-02-24T04:48:32.230Z,20.40
2018-02-24T04:49:32.179Z,20.60
2018-02-24T04:50:32.124Z,20.80
2018-02-24T04:51:32.075Z,20.70
2018-02-24T04:52:32.024Z,20.90
2018-02-24T04:53:31.967Z,21.00
2018-02-24T04:54:31.920Z,20.50
2018-02-24T04:55:31.861Z,20.70
2018-02-24T04:56:31.815Z,20.20
2018-02-24T04:57:31.757Z,20.00
2018-02-24T04:58:31.705Z,21.40
2018-02-24T04:59:31.665Z,20.70
2018-02-24T05:00:31.601Z,20.10
2018-02-24T05:01:31.548Z,21.30
2018-02-24T05:02:31.503Z,20.20
2018-02-24T05:03:31.446Z,20.30
2018-02-24T05:04:31.397Z,20.40
2018-02-24T05:05:31.340Z,19.80
2018-02-24T05:06:31.285Z,20.90
2018-02-24T05:07:31.240Z,20.60
2018-02-24T05:08:31.182Z,20.60
2018-02-24T05:09:31.130Z,21.50
2018-02-24T05:10:31.078Z,21.50
2018-02-24T05:11:31.022Z,21.30
2018-02-24T05:12:30.973Z,20.60
2018-02-24T05:13:30.917Z,20.80
2018-02-24T05:14:30.874Z,20.30
2018-02-24T05:15:30.816Z,20.70
2018-02-24T05:16:30.762Z,21.70
2018-02-24T05:17:30.709Z,21.30
2018-02-24T05:18:30.660Z,21.00
2018-02-24T05:19:30.611Z,21.80
2018-02-24T05:20:30.554Z,21.70
2018-02-24T05:21:30.500Z,20.50
2018-02-24T05:22:30.451Z,20.30
2018-02-24T05:23:30.397Z,20.40
2018-02-24T05:24:30.344Z,21.80
2018-02-24T05:25:30.289Z,21.30
2018-02-24T05:26:30.239Z,21.10
2018-02-24T05:27:30.188Z,21.10
2018-02-24T05:28:30.136Z,21.40
2018-02-24T05:29:30.083Z,20.40
2018-02-24T05:30:30.028Z,21.10
2018-02-24T05:31:29.977Z,21.30
2018-02-24T05:32:29.930Z,20.80
2018-02-24T05:33:29.875Z,20.30
2018-02-24T05:34:29.823Z,21.00
2018-02-24T05:35:29.771Z,20.20
2018-02-24T05:36:29.717Z,20.80
2018-02-24T05:37:29.659Z,20.40
2018-02-24T05:38:29.611Z,20.90
2018-02-24T05:39:29.557Z,21.20
2018-02-24T05:40:29.505Z,20.60
2018-02-24T05:41:29.449Z,20.60
2018-02-24T05:42:29.399Z,20.10
2018-02-24T05:43:29.347Z,21.90
2018-02-24T05:44:29.299Z,22.20
2018-02-24T05:45:29.244Z,21.10
2018-02-24T05:46:29.189Z,21.00
2018-02-24T05:47:29.139Z,20.90
2018-02-24T05:48:29.085Z,21.40
2018-02-24T05:49:29.032Z,21.30
2018-02-24T05:50:28.984Z,21.50
2018-02-24T05:51:28.928Z,20.50
2018-02-24T05:52:28.875Z,21.40
2018-02-24T05:53:28.822Z,20.80
2018-02-24T05:54:28.769Z,21.20
2018-02-24T05:55:28.723Z,20.80
2018-02-24T05:56:28.668Z,19.20
2018-02-24T05:57:28.617Z,20.60
2018-02-24T05:58:28.557Z,21.00
2018-02-24T05:59:28.507Z,20.40
2018-02-24T06:00:28.460Z,20.00
2018-02-24T06:01:28.407Z,20.00
2018-02-24T06:02:28.355Z,21.10
2018-02-24T06:03:28.300Z,20.70
2018-02-24T06:04:28.243Z,20.70
2018-02-24T06:05:28.189Z,20.40
2018-02-24T06:06:28.140Z,20.90
2018-02-24T06:07:28.087Z,21.10
2018-02-24T06:08:28.039Z,20.30
2018-02-24T06:09:27.980Z,20.60
2018-02-24T06:10:27.931Z,19.80
2018-02-24T06:11:27.877Z,20.90
2018-02-24T06:12:27.825Z,20.80
2018-02-24T06:13:27.772Z,20.20
2018-02-24T06:14:27.721Z,20.70
2018-02-24T06:15:27.669Z,20.60
2018-02-24T06:16:27.614Z,19.70
2018-02-24T06:17:27.566Z,20.60
2018-02-24T06:18:27.508Z,21.50
2018-02-24T06:19:27.456Z,19.60
2018-02-24T06:20:27.412Z,19.70
2018-02-24T06:21:27.349Z,20.50
2018-02-24T06:22:27.300Z,20.90
2018-02-24T06:23:27.248Z,20.70
2018-02-24T06:24:27.194Z,20.50
2018-02-24T06:25:27.141Z,19.80
2018-02-24T06:26:27.092Z,21.50
2018-02-24T06:27:27.039Z,19.70
2018-02-24T06:28:26.992Z,19.80
2018-02-24T06:29:26.929Z,21.00
2018-02-24T06:30:26.882Z,19.90
2018-02-24T06:31:26.827Z,19.80
2018-02-24T06:32:26.773Z,20.20
2018-02-24T06:33:26.726Z,19.50
2018-02-24T06:34:26.673Z,19.90
2018-02-24T06:35:26.618Z,20.00
2018-02-24T06:36:26.563Z,19.50
2018-02-24T06:37:26.515Z,20.00
2018-02-24T06:38:26.462Z,20.30
2018-02-24T06:39:26.407Z,19.30
2018-02-24T06:40:26.355Z,19.30
2018-02-24T06:41:26.298Z,19.70
2018-02-24T06:42:26.260Z,20.40
2018-02-24T06:43:26.201Z,19.00
2018-02-24T06:44:26.142Z,20.10
2018-02-24T06:45:26.090Z,20.20
2018-02-24T06:46:26.043Z,20.10
2018-02-24T06:47:25.985Z,19.50
2018-02-24T06:48:25.934Z,19.60
2018-02-24T06:49:25.888Z,19.60
2018-02-24T06:50:25.828Z,19.40
2018-02-24T06:51:25.778Z,19.40
2018-02-24T06:52:25.722Z,19.10
2018-02-24T06:53:25.671Z,19.90
2018-02-24T06:54:25.627Z,20.00
2018-02-24T06:55:25.563Z,20.60
2018-02-24T06:56:25.516Z,19.10
2018-02-24T06:57:25.460Z,20.40
2018-02-24T06:58:25.408Z,19.10
2018-02-24T06:59:25.355Z,18.60
2018-02-24T07:00:25.304Z,19.70
2018-02-24T07:01:25.257Z,19.40
2018-02-24T07:02:25.199Z,19.30
2018-02-24T07:03:25.152Z,19.80
2018-02-24T07:04:25.098Z,19.20
2018-02-24T07:05:25.044Z,20.00
2018-02-24T07:06:24.992Z,19.10
2018-02-24T07:07:24.987Z,19.60
2018-02-24T07:08:24.883Z,19.40
2018-02-24T07:09:24.838Z,18.60
2018-02-24T07:10:24.781Z,18.30
2018-02-24T07:11:24.730Z,19.00
2018-02-24T07:12:24.672Z,18.50
2018-02-24T07:13:24.622Z,19.10
2018-02-24T07:14:24.569Z,19.20
2018-02-24T07:15:24.514Z,19.30
2018-02-24T07:16:24.463Z,18.60
2018-02-24T07:17:24.417Z,18.50
2018-02-24T07:18:24.389Z,19.10
2018-02-24T07:19:24.308Z,17.60
2018-02-24T07:20:24.259Z,18.70
2018-02-24T07:21:24.200Z,18.40
2018-02-24T07:22:24.149Z,18.90
2018-02-24T07:23:24.101Z,18.60
2018-02-24T07:24:24.046Z,19.30
2018-02-24T07:25:23.990Z,18.70
2018-02-24T07:26:23.940Z,20.20
2018-02-24T07:27:23.886Z,19.00
2018-02-24T07:28:23.837Z,18.90
2018-02-24T07:29:23.782Z,18.60
2018-02-24T07:30:23.731Z,19.20
2018-02-24T07:31:23.679Z,19.10
2018-02-24T07:32:23.626Z,18.50
2018-02-24T07:33:23.570Z,18.00
2018-02-24T07:34:23.518Z,19.20
2018-02-24T07:35:23.468Z,18.50
2018-02-24T07:36:23.424Z,19.70
2018-02-24T07:37:23.369Z,19.10
2018-02-24T07:38:23.310Z,19.30
2018-02-24T07:39:23.258Z,17.80
2018-02-24T07:40:23.208Z,18.50
2018-02-24T07:41:23.157Z,18.30
2018-02-24T07:42:23.112Z,18.10
2018-02-24T07:43:23.052Z,18.70
2018-02-24T07:44:23.006Z,18.40
2018-02-24T07:45:22.956Z,18.70
2018-02-24T07:46:22.899Z,18.10
2018-02-24T07:47:22.846Z,18.60
2018-02-24T07:48:22.794Z,19.00
2018-02-24T07:49:22.743Z,18.20
2018-02-24T07:50:22.695Z,18.10
2018-02-24T07:51:22.644Z,17.60
2018-02-24T07:52:22.588Z,18.80
2018-02-24T07:53:22.536Z,18.50
2018-02-24T07:54:22.486Z,17.90
2018-02-24T07:55:22.437Z,18.30
2018-02-24T07:56:22.389Z,17.70
2018-02-24T07:57:22.335Z,18.00
2018-02-24T07:58:22.283Z,17.70
2018-02-24T07:59:22.232Z,17.40
2018-02-24T08:00:22.177Z,17.60
2018-02-24T08:01:22.127Z,19.20
2018-02-24T08:02:22.076Z,18.60
2018-02-24T08:03:22.026Z,17.00
2018-02-24T08:04:22.024Z,18.50
2018-02-24T08:05:21.926Z,18.20
2018-02-24T08:06:21.878Z,17.50
2018-02-24T08:07:21.821Z,18.10
2018-02-24T08:08:21.776Z,17.70
2018-02-24T08:09:21.724Z,18.00
2018-02-24T08:10:21.671Z,18.30
2018-02-24T08:11:21.634Z,18.00
2018-02-24T08:12:21.574Z,16.80
2018-02-24T08:13:21.523Z,16.40
2018-02-24T08:14:21.473Z,17.00
2018-02-24T08:15:21.423Z,16.70
2018-02-24T08:16:21.376Z,17.30
2018-02-24T08:17:21.325Z,16.60
2018-02-24T08:18:21.279Z,17.50
2018-02-24T08:19:21.230Z,18.00
2018-02-24T08:20:21.434Z,17.20
2018-02-24T08:21:21.127Z,16.30
2018-02-24T08:22:21.088Z,16.90
2018-02-24T08:23:21.038Z,16.70
2018-02-24T08:24:20.990Z,16.50
2018-02-24T08:25:20.938Z,16.30
2018-02-24T08:26:20.908Z,16.10
2018-02-24T08:27:20.847Z,16.60
2018-02-24T08:28:20.802Z,16.60
2018-02-24T08:29:20.754Z,16.20
2018-02-24T08:30:20.710Z,16.40
2018-02-24T08:31:20.664Z,16.70
2018-02-24T08:32:20.624Z,16.50
2018-02-24T08:33:20.568Z,16.10
2018-02-24T08:34:20.522Z,15.90
2018-02-24T08:35:20.476Z,15.10
2018-02-24T08:36:20.439Z,14.80
2018-02-24T08:37:20.385Z,14.60
2018-02-24T08:38:20.346Z,15.60
2018-02-24T08:39:20.320Z,15.30
2018-02-24T08:40:20.265Z,16.70
2018-02-24T08:41:20.207Z,15.80
2018-02-24T08:42:20.159Z,15.40
2018-02-24T08:43:20.116Z,15.10
2018-02-24T08:44:20.076Z,15.90
2018-02-24T08:45:20.027Z,15.50
2018-02-24T08:46:19.982Z,15.40
2018-02-24T08:47:19.933Z,15.50
2018-02-24T08:48:19.891Z,15.30
2018-02-24T08:49:19.846Z,15.40
2018-02-24T08:50:19.802Z,16.00
2018-02-24T08:51:19.762Z,16.00
2018-02-24T08:52:19.710Z,16.40
2018-02-24T08:53:19.671Z,15.50
2018-02-24T08:54:19.623Z,15.00
2018-02-24T08:55:19.578Z,14.70
2018-02-24T08:56:19.533Z,15.30
2018-02-24T08:57:19.508Z,15.60
2018-02-24T08:58:19.444Z,15.80
2018-02-24T08:59:19.395Z,15.60
2018-02-24T09:00:19.394Z,15.40
2018-02-24T09:01:19.312Z,14.70
2018-02-24T09:02:19.263Z,15.40
2018-02-24T09:03:19.219Z,14.90
2018-02-24T09:04:19.174Z,14.70
2018-02-24T09:05:19.135Z,15.50
2018-02-24T09:06:19.086Z,15.10
2018-02-24T09:07:19.143Z,15.40
2018-02-24T09:08:18.999Z,14.50
2018-02-24T09:09:18.955Z,15.50
2018-02-24T09:10:18.906Z,15.70
2018-02-24T09:11:18.863Z,15.50
2018-02-24T09:12:18.817Z,15.70
2018-02-24T09:13:18.773Z,14.70
2018-02-24T09:14:18.728Z,14.40
2018-02-24T09:15:18.700Z,15.20
2018-02-24T09:16:18.637Z,15.40
2018-02-24T09:17:18.592Z,15.00
2018-02-24T09:18:18.547Z,15.00
2018-02-24T09:19:18.504Z,14.90
2018-02-24T09:20:18.462Z,14.40
2018-02-24T09:21:18.415Z,14.80
2018-02-24T09:22:18.369Z,14.30
2018-02-24T09:23:18.329Z,14.80
2018-02-24T09:24:18.336Z,15.30
2018-02-24T09:25:18.264Z,14.80
2018-02-24T09:26:18.190Z,15.00
2018-02-24T09:27:18.147Z,15.40
2018-02-24T09:28:18.097Z,14.50
2018-02-24T09:29:18.058Z,14.20
2018-02-24T09:30:18.007Z,15.00
2018-02-24T09:31:17.975Z,14.90
2018-02-24T09:32:17.917Z,13.60
2018-02-24T09:33:17.875Z,14.30
2018-02-24T09:34:17.830Z,13.90
2018-02-24T09:35:17.782Z,13.80
2018-02-24T09:36:17.742Z,13.80
2018-02-24T09:37:17.800Z,13.40
2018-02-24T09:38:17.649Z,13.90
2018-02-24T09:39:17.604Z,14.40
2018-02-24T09:40:17.559Z,13.60
2018-02-24T09:41:17.516Z,13.30
2018-02-24T09:43:17.424Z,13.60
2018-02-24T09:44:17.380Z,13.80
2018-02-24T09:45:17.337Z,12.90
2018-02-24T09:46:17.349Z,13.50
2018-02-24T09:47:17.247Z,13.60
2018-02-24T09:48:17.200Z,13.40
2018-02-24T09:49:17.158Z,14.50
2018-02-24T09:50:17.114Z,13.20
2018-02-24T09:51:17.066Z,13.50
2018-02-24T09:52:17.021Z,13.20
2018-02-24T09:53:16.985Z,13.60
2018-02-24T09:54:16.929Z,13.80
2018-02-24T09:55:16.880Z,13.20
2018-02-24T09:56:16.841Z,13.60
2018-02-24T09:57:16.793Z,13.90
2018-02-24T09:58:16.747Z,13.60
2018-02-24T09:59:16.705Z,13.50
2018-02-24T10:00:16.676Z,13.80
2018-02-24T10:01:16.627Z,13.60
2018-02-24T10:02:16.558Z,14.50
2018-02-24T10:03:16.516Z,12.80
2018-02-24T10:04:16.473Z,13.60
2018-02-24T10:05:16.422Z,13.00
2018-02-24T10:06:18.074Z,14.20
2018-02-24T10:07:16.333Z,13.10
2018-02-24T10:08:16.286Z,13.10
2018-02-24T10:09:16.237Z,13.60
2018-02-24T10:10:16.187Z,13.30
2018-02-24T10:11:16.171Z,13.00
2018-02-24T10:12:16.096Z,12.70
2018-02-24T10:13:16.047Z,12.70
2018-02-24T10:14:16.007Z,12.90
2018-02-24T10:15:15.961Z,12.70
2018-02-24T10:16:15.909Z,13.60
2018-02-24T10:17:15.865Z,12.90
2018-02-24T10:18:15.812Z,13.00
2018-02-24T10:19:15.767Z,13.50
2018-02-24T10:20:15.720Z,13.00
2018-02-24T10:21:15.679Z,12.20
2018-02-24T10:22:15.629Z,12.80
2018-02-24T10:23:15.595Z,12.40
2018-02-24T10:24:15.536Z,12.80
2018-02-24T10:25:15.485Z,13.50
2018-02-24T10:26:15.441Z,12.70
2018-02-24T10:27:15.394Z,13.80
2018-02-24T10:28:15.346Z,13.60
2018-02-24T10:29:15.295Z,13.30
2018-02-24T10:30:15.251Z,13.10
2018-02-24T10:31:15.200Z,13.40
2018-02-24T10:32:15.150Z,13.00
2018-02-24T10:33:15.107Z,13.20
2018-02-24T10:34:15.057Z,13.00
2018-02-24T10:35:15.010Z,13.20
2018-02-24T10:36:14.963Z,13.20
2018-02-24T10:37:14.912Z,12.90
2018-02-24T10:38:14.872Z,13.20
2018-02-24T10:39:14.819Z,13.40
2018-02-24T10:40:14.777Z,13.20
2018-02-24T10:41:14.723Z,13.00
2018-02-24T10:42:14.677Z,13.00
2018-02-24T10:43:14.627Z,12.50
2018-02-24T10:44:14.585Z,12.90
2018-02-24T10:45:14.532Z,12.60
2018-02-24T10:46:14.488Z,12.90
2018-02-24T10:47:14.441Z,12.70
2018-02-24T10:48:14.390Z,12.80
2018-02-24T10:49:14.340Z,12.70
2018-02-24T10:50:14.292Z,13.00
2018-02-24T10:51:14.246Z,12.90
2018-02-24T10:52:14.198Z,12.40
2018-02-24T10:53:14.150Z,12.60
2018-02-24T10:54:14.101Z,11.80
2018-02-24T10:55:14.055Z,12.10
2018-02-24T10:56:14.010Z,12.90
2018-02-24T10:57:13.960Z,13.00
2018-02-24T10:58:13.913Z,12.90
2018-02-24T10:59:13.868Z,12.40
2018-02-24T11:00:13.818Z,12.80
2018-02-24T11:01:13.768Z,12.30
2018-02-24T11:02:13.721Z,12.30
2018-02-24T11:03:13.676Z,12.50
2018-02-24T11:04:13.628Z,12.80
2018-02-24T11:05:13.577Z,12.00
2018-02-24T11:06:13.530Z,12.20
2018-02-24T11:07:18.504Z,12.30
2018-02-24T11:08:13.440Z,12.60
2018-02-24T11:09:13.390Z,11.60
2018-02-24T11:10:13.337Z,12.50
2018-02-24T11:11:13.295Z,12.60
2018-02-24T11:12:13.250Z,11.80
2018-02-24T11:13:13.194Z,12.40
2018-02-24T11:14:13.151Z,11.50
2018-02-24T11:15:13.098Z,11.20
2018-02-24T11:16:13.051Z,10.80
2018-02-24T11:17:13.005Z,10.80
2018-02-24T11:18:12.955Z,10.70
2018-02-24T11:19:12.905Z,10.20
2018-02-24T11:20:12.861Z,9.90
2018-02-24T11:21:12.812Z,10.70
2018-02-24T11:22:12.767Z,9.40
2018-02-24T11:23:12.715Z,10.00
2018-02-24T11:24:12.684Z,9.30
2018-02-24T11:25:12.618Z,9.30
2018-02-24T11:26:12.568Z,8.80
2018-02-24T11:27:12.523Z,9.60
2018-02-24T11:28:12.482Z,8.70
2018-02-24T11:29:12.430Z,8.80
2018-02-24T11:30:12.376Z,8.90
2018-02-24T11:31:12.329Z,8.40
2018-02-24T11:32:12.282Z,8.80
2018-02-24T11:33:12.230Z,9.40
2018-02-24T11:34:12.187Z,9.30
2018-02-24T11:35:12.153Z,8.60
2018-02-24T11:36:12.089Z,7.90
2018-02-24T11:37:12.042Z,8.50
2018-02-24T11:38:11.991Z,8.00
2018-02-24T11:39:11.945Z,7.40
2018-02-24T11:40:11.897Z,7.50
2018-02-24T11:41:11.849Z,8.00
2018-02-24T11:42:11.801Z,7.90
2018-02-24T11:43:11.753Z,7.90
2018-02-24T11:44:11.707Z,7.40
2018-02-24T11:45:11.659Z,8.30
2018-02-24T11:46:11.610Z,7.80
2018-02-24T11:47:11.561Z,7.30
2018-02-24T11:48:11.514Z,7.90
2018-02-24T11:49:11.466Z,7.70
2018-02-24T11:50:11.423Z,7.60
2018-02-24T11:51:11.371Z,7.40
2018-02-24T11:52:11.323Z,8.00
2018-02-24T11:53:11.275Z,7.20
2018-02-24T11:54:11.230Z,7.00
2018-02-24T11:55:11.177Z,6.80
2018-02-24T11:56:11.127Z,7.30
2018-02-24T11:57:11.081Z,7.40
2018-02-24T11:59:11.007Z,7.60
2018-02-24T12:00:10.934Z,7.90
2018-02-24T12:01:10.894Z,7.40
2018-02-24T12:02:10.837Z,7.70
2018-02-24T12:03:10.798Z,7.70
2018-02-24T12:04:10.745Z,8.30
2018-02-24T12:05:10.698Z,8.30
2018-02-24T12:06:10.651Z,7.80
2018-02-24T12:07:10.602Z,8.00
2018-02-24T12:08:10.554Z,8.40
2018-02-24T12:09:10.503Z,8.40
2018-02-24T12:10:10.456Z,8.00
2018-02-24T12:11:10.412Z,7.60
2018-02-24T12:12:10.361Z,7.70
2018-02-24T12:13:10.315Z,7.40
2018-02-24T12:14:10.263Z,7.60
2018-02-24T12:15:10.220Z,8.10
2018-02-24T12:16:10.172Z,7.70
2018-02-24T12:17:10.120Z,8.00
2018-02-24T12:18:10.073Z,8.00
2018-02-24T12:19:10.026Z,7.90
2018-02-24T12:20:09.984Z,8.60
2018-02-24T12:21:09.929Z,7.90
2018-02-24T12:22:09.887Z,7.80
2018-02-24T12:23:09.834Z,8.50
2018-02-24T12:24:09.788Z,8.10
2018-02-24T12:25:09.741Z,7.70
2018-02-24T12:26:09.691Z,7.90
2018-02-24T12:27:09.644Z,8.10
2018-02-24T12:28:09.597Z,8.10
2018-02-24T12:29:09.549Z,8.00
2018-02-24T12:30:09.508Z,7.70
2018-02-24T12:31:09.459Z,7.80
2018-02-24T12:32:09.409Z,7.50
2018-02-24T12:33:09.362Z,7.80
2018-02-24T12:34:09.313Z,8.10
2018-02-24T12:35:09.266Z,7.60
2018-02-24T12:36:09.217Z,7.40
2018-02-24T12:37:09.176Z,7.90
2018-02-24T12:38:09.123Z,8.00
2018-02-24T12:39:09.081Z,7.60
2018-02-24T12:40:09.027Z,7.70
2018-02-24T12:41:08.985Z,7.80
2018-02-24T12:42:08.934Z,7.30
2018-02-24T12:43:08.887Z,8.10
2018-02-24T12:44:08.847Z,7.10
2018-02-24T12:45:08.802Z,7.60
2018-02-24T12:46:08.755Z,7.70
2018-02-24T12:47:08.704Z,7.20
2018-02-24T12:48:08.655Z,7.50
2018-02-24T12:49:08.659Z,7.30
2018-02-24T12:50:08.559Z,6.80
2018-02-24T12:51:08.517Z,7.10
2018-02-24T12:52:08.467Z,7.20
2018-02-24T12:53:08.419Z,7.50
2018-02-24T12:54:08.372Z,6.80
2018-02-24T12:55:08.330Z,7.20
2018-02-24T12:56:08.279Z,7.40
2018-02-24T12:57:08.234Z,6.60